Terminal Aerodrome Forecast
Issued by NWS

Home | Current Version | Previous Version | Graphics & Text | Print | Product List | Glossary On
Versions: 1 2 3 4 5 6 7 8 9 10 11 12 13 14
492
FTUS43 KMPX 051120
TAFRWF
TAF
KRWF 051120Z 0512/0612 17008KT P6SM OVC090
     FM051600 18011KT P6SM OVC040
      TEMPO 0518/0522 5SM -SN OVC025
     FM060000 28005KT P6SM BKN022
     FM060400 26006KT P6SM SCT050=

USA.gov is the U.S. government's official web portal to all federal, state and local government web resources and services.